sensor_id;sensor_type;location;lat;lon;timestamp;P1;durP1;ratioP1;P2;durP2;ratioP2
12418;SDS011;6273;52.312;9.178;2022-08-03T00:00:43;3.57;;;3.27;;
12418;SDS011;6273;52.312;9.178;2022-08-03T00:03:08;3.50;;;3.30;;
12418;SDS011;6273;52.312;9.178;2022-08-03T00:05:35;3.60;;;3.40;;
12418;SDS011;6273;52.312;9.178;2022-08-03T00:08:00;5.10;;;3.40;;
12418;SDS011;6273;52.312;9.178;2022-08-03T00:10:26;3.63;;;3.37;;
12418;SDS011;6273;52.312;9.178;2022-08-03T00:12:52;4.00;;;3.60;;
12418;SDS011;6273;52.312;9.178;2022-08-03T00:15:18;3.83;;;3.63;;
12418;SDS011;6273;52.312;9.178;2022-08-03T00:17:44;3.63;;;3.43;;
12418;SDS011;6273;52.312;9.178;2022-08-03T00:20:10;4.63;;;3.23;;
12418;SDS011;6273;52.312;9.178;2022-08-03T00:22:37;3.27;;;2.97;;
12418;SDS011;6273;52.312;9.178;2022-08-03T00:25:03;4.07;;;3.77;;
12418;SDS011;6273;52.312;9.178;2022-08-03T00:27:29;3.30;;;3.10;;
12418;SDS011;6273;52.312;9.178;2022-08-03T00:29:54;5.00;;;3.53;;
12418;SDS011;6273;52.312;9.178;2022-08-03T00:32:20;2.87;;;2.67;;
12418;SDS011;6273;52.312;9.178;2022-08-03T00:34:46;3.77;;;3.47;;
12418;SDS011;6273;52.312;9.178;2022-08-03T00:37:11;3.70;;;3.40;;
12418;SDS011;6273;52.312;9.178;2022-08-03T00:39:37;12.53;;;3.57;;
12418;SDS011;6273;52.312;9.178;2022-08-03T00:42:03;2.90;;;2.80;;
12418;SDS011;6273;52.312;9.178;2022-08-03T00:44:29;3.30;;;3.03;;
12418;SDS011;6273;52.312;9.178;2022-08-03T00:46:55;4.00;;;3.60;;
12418;SDS011;6273;52.312;9.178;2022-08-03T00:49:20;3.90;;;3.70;;
12418;SDS011;6273;52.312;9.178;2022-08-03T00:51:46;3.80;;;3.60;;
12418;SDS011;6273;52.312;9.178;2022-08-03T00:54:12;3.60;;;3.40;;
12418;SDS011;6273;52.312;9.178;2022-08-03T00:56:39;5.63;;;3.83;;
12418;SDS011;6273;52.312;9.178;2022-08-03T00:59:06;3.60;;;3.30;;
12418;SDS011;6273;52.312;9.178;2022-08-03T01:01:34;3.50;;;3.30;;
12418;SDS011;6273;52.312;9.178;2022-08-03T01:03:59;3.00;;;2.70;;
12418;SDS011;6273;52.312;9.178;2022-08-03T01:06:36;3.50;;;3.20;;
12418;SDS011;6273;52.312;9.178;2022-08-03T01:09:22;3.33;;;3.13;;
12418;SDS011;6273;52.312;9.178;2022-08-03T01:12:13;8.97;;;3.70;;
12418;SDS011;6273;52.312;9.178;2022-08-03T01:17:26;4.67;;;3.50;;
12418;SDS011;6273;52.312;9.178;2022-08-03T01:19:59;10.53;;;3.40;;
12418;SDS011;6273;52.312;9.178;2022-08-03T01:22:36;3.07;;;2.87;;
12418;SDS011;6273;52.312;9.178;2022-08-03T01:28:32;3.23;;;2.93;;
12418;SDS011;6273;52.312;9.178;2022-08-03T01:31:09;5.40;;;3.37;;
12418;SDS011;6273;52.312;9.178;2022-08-03T01:33:41;3.90;;;3.03;;
12418;SDS011;6273;52.312;9.178;2022-08-03T01:36:12;4.00;;;3.47;;
12418;SDS011;6273;52.312;9.178;2022-08-03T01:38:42;3.97;;;3.60;;
12418;SDS011;6273;52.312;9.178;2022-08-03T01:41:12;3.67;;;3.47;;
12418;SDS011;6273;52.312;9.178;2022-08-03T01:43:43;4.53;;;3.30;;
12418;SDS011;6273;52.312;9.178;2022-08-03T01:46:13;4.23;;;3.33;;
12418;SDS011;6273;52.312;9.178;2022-08-03T01:48:41;4.10;;;3.70;;
12418;SDS011;6273;52.312;9.178;2022-08-03T01:51:08;3.93;;;3.63;;
12418;SDS011;6273;52.312;9.178;2022-08-03T01:53:35;3.90;;;3.60;;
12418;SDS011;6273;52.312;9.178;2022-08-03T01:56:06;3.77;;;3.57;;
12418;SDS011;6273;52.312;9.178;2022-08-03T01:58:34;4.33;;;3.83;;
12418;SDS011;6273;52.312;9.178;2022-08-03T02:01:01;4.00;;;3.57;;
12418;SDS011;6273;52.312;9.178;2022-08-03T02:03:29;5.13;;;3.10;;
12418;SDS011;6273;52.312;9.178;2022-08-03T02:05:57;3.13;;;2.83;;
12418;SDS011;6273;52.312;9.178;2022-08-03T02:08:25;3.03;;;2.83;;
12418;SDS011;6273;52.312;9.178;2022-08-03T02:10:54;7.07;;;3.80;;
12418;SDS011;6273;52.312;9.178;2022-08-03T02:13:23;3.57;;;3.37;;
12418;SDS011;6273;52.312;9.178;2022-08-03T02:15:49;3.40;;;3.10;;
12418;SDS011;6273;52.312;9.178;2022-08-03T02:18:17;6.43;;;4.10;;
12418;SDS011;6273;52.312;9.178;2022-08-03T02:20:43;3.03;;;2.83;;
12418;SDS011;6273;52.312;9.178;2022-08-03T02:23:10;3.27;;;3.00;;
12418;SDS011;6273;52.312;9.178;2022-08-03T02:25:46;3.10;;;3.00;;
12418;SDS011;6273;52.312;9.178;2022-08-03T02:28:21;3.90;;;3.60;;
12418;SDS011;6273;52.312;9.178;2022-08-03T02:30:54;6.20;;;3.73;;
12418;SDS011;6273;52.312;9.178;2022-08-03T02:33:29;3.83;;;3.53;;
12418;SDS011;6273;52.312;9.178;2022-08-03T02:35:58;3.47;;;3.27;;
12418;SDS011;6273;52.312;9.178;2022-08-03T02:38:27;3.00;;;2.53;;
12418;SDS011;6273;52.312;9.178;2022-08-03T02:40:56;4.00;;;3.70;;
12418;SDS011;6273;52.312;9.178;2022-08-03T02:43:22;3.50;;;3.27;;
12418;SDS011;6273;52.312;9.178;2022-08-03T02:45:49;3.60;;;3.30;;
12418;SDS011;6273;52.312;9.178;2022-08-03T02:48:17;4.33;;;3.20;;
12418;SDS011;6273;52.312;9.178;2022-08-03T02:50:47;3.83;;;3.53;;
12418;SDS011;6273;52.312;9.178;2022-08-03T02:53:15;3.47;;;3.17;;
12418;SDS011;6273;52.312;9.178;2022-08-03T02:55:42;3.40;;;3.17;;
12418;SDS011;6273;52.312;9.178;2022-08-03T02:58:10;3.60;;;3.30;;
12418;SDS011;6273;52.312;9.178;2022-08-03T03:00:38;3.73;;;2.97;;
12418;SDS011;6273;52.312;9.178;2022-08-03T03:03:05;4.33;;;3.10;;
12418;SDS011;6273;52.312;9.178;2022-08-03T03:05:31;8.33;;;2.87;;
12418;SDS011;6273;52.312;9.178;2022-08-03T03:07:58;3.20;;;2.90;;
12418;SDS011;6273;52.312;9.178;2022-08-03T03:10:24;3.83;;;3.50;;
12418;SDS011;6273;52.312;9.178;2022-08-03T03:12:54;5.27;;;3.20;;
12418;SDS011;6273;52.312;9.178;2022-08-03T03:15:22;3.30;;;3.00;;
12418;SDS011;6273;52.312;9.178;2022-08-03T03:17:49;3.63;;;3.43;;
12418;SDS011;6273;52.312;9.178;2022-08-03T03:20:17;3.40;;;3.20;;
12418;SDS011;6273;52.312;9.178;2022-08-03T03:22:44;3.47;;;3.17;;
12418;SDS011;6273;52.312;9.178;2022-08-03T03:25:13;3.73;;;3.43;;
12418;SDS011;6273;52.312;9.178;2022-08-03T03:27:39;3.90;;;3.60;;
12418;SDS011;6273;52.312;9.178;2022-08-03T03:30:05;4.17;;;3.87;;
12418;SDS011;6273;52.312;9.178;2022-08-03T03:32:31;3.50;;;3.20;;
12418;SDS011;6273;52.312;9.178;2022-08-03T03:34:57;6.70;;;3.73;;
12418;SDS011;6273;52.312;9.178;2022-08-03T03:37:25;5.97;;;3.43;;
12418;SDS011;6273;52.312;9.178;2022-08-03T03:39:52;5.90;;;3.80;;
12418;SDS011;6273;52.312;9.178;2022-08-03T03:42:18;5.43;;;4.90;;
12418;SDS011;6273;52.312;9.178;2022-08-03T03:44:44;9.80;;;4.10;;
12418;SDS011;6273;52.312;9.178;2022-08-03T03:47:10;6.03;;;3.90;;
12418;SDS011;6273;52.312;9.178;2022-08-03T03:49:36;3.60;;;3.40;;
12418;SDS011;6273;52.312;9.178;2022-08-03T03:52:02;3.57;;;3.00;;
12418;SDS011;6273;52.312;9.178;2022-08-03T03:54:40;4.60;;;4.13;;
12418;SDS011;6273;52.312;9.178;2022-08-03T03:57:08;4.17;;;3.73;;
12418;SDS011;6273;52.312;9.178;2022-08-03T03:59:41;3.80;;;3.60;;
12418;SDS011;6273;52.312;9.178;2022-08-03T04:02:08;4.20;;;3.90;;
12418;SDS011;6273;52.312;9.178;2022-08-03T04:04:35;3.80;;;3.50;;
12418;SDS011;6273;52.312;9.178;2022-08-03T04:07:21;17.07;;;4.63;;
12418;SDS011;6273;52.312;9.178;2022-08-03T04:10:29;12.07;;;5.50;;
12418;SDS011;6273;52.312;9.178;2022-08-03T04:13:14;4.17;;;3.77;;
12418;SDS011;6273;52.312;9.178;2022-08-03T04:15:41;7.73;;;3.70;;
12418;SDS011;6273;52.312;9.178;2022-08-03T04:18:08;8.60;;;4.57;;
12418;SDS011;6273;52.312;9.178;2022-08-03T04:20:37;6.90;;;4.50;;
12418;SDS011;6273;52.312;9.178;2022-08-03T04:23:08;11.83;;;5.20;;
12418;SDS011;6273;52.312;9.178;2022-08-03T04:25:35;15.00;;;5.77;;
12418;SDS011;6273;52.312;9.178;2022-08-03T04:28:04;10.63;;;4.53;;
12418;SDS011;6273;52.312;9.178;2022-08-03T04:30:30;5.40;;;5.00;;
12418;SDS011;6273;52.312;9.178;2022-08-03T04:33:00;6.90;;;4.30;;
12418;SDS011;6273;52.312;9.178;2022-08-03T04:35:30;5.20;;;4.50;;
12418;SDS011;6273;52.312;9.178;2022-08-03T04:38:02;10.10;;;4.03;;
12418;SDS011;6273;52.312;9.178;2022-08-03T04:40:35;4.90;;;4.10;;
12418;SDS011;6273;52.312;9.178;2022-08-03T04:43:03;4.53;;;4.23;;
12418;SDS011;6273;52.312;9.178;2022-08-03T04:45:31;5.53;;;4.20;;
12418;SDS011;6273;52.312;9.178;2022-08-03T04:47:57;7.63;;;4.20;;
12418;SDS011;6273;52.312;9.178;2022-08-03T04:50:24;9.90;;;5.37;;
12418;SDS011;6273;52.312;9.178;2022-08-03T04:52:52;4.57;;;4.23;;
12418;SDS011;6273;52.312;9.178;2022-08-03T04:55:28;4.57;;;4.20;;
12418;SDS011;6273;52.312;9.178;2022-08-03T04:57:54;4.70;;;4.07;;
12418;SDS011;6273;52.312;9.178;2022-08-03T05:00:21;4.00;;;3.70;;
12418;SDS011;6273;52.312;9.178;2022-08-03T05:02:46;10.80;;;4.53;;
12418;SDS011;6273;52.312;9.178;2022-08-03T05:05:12;9.43;;;4.20;;
12418;SDS011;6273;52.312;9.178;2022-08-03T05:07:40;15.33;;;5.40;;
12418;SDS011;6273;52.312;9.178;2022-08-03T05:10:07;6.73;;;4.30;;
12418;SDS011;6273;52.312;9.178;2022-08-03T05:12:34;12.90;;;4.50;;
12418;SDS011;6273;52.312;9.178;2022-08-03T05:15:00;7.37;;;4.37;;
12418;SDS011;6273;52.312;9.178;2022-08-03T05:17:25;6.80;;;2.90;;
12418;SDS011;6273;52.312;9.178;2022-08-03T05:19:52;3.17;;;2.80;;
12418;SDS011;6273;52.312;9.178;2022-08-03T05:22:18;4.10;;;3.27;;
12418;SDS011;6273;52.312;9.178;2022-08-03T05:24:44;5.00;;;3.10;;
12418;SDS011;6273;52.312;9.178;2022-08-03T05:27:10;5.23;;;2.80;;
12418;SDS011;6273;52.312;9.178;2022-08-03T05:29:41;15.00;;;4.60;;
12418;SDS011;6273;52.312;9.178;2022-08-03T05:32:07;18.97;;;5.50;;
12418;SDS011;6273;52.312;9.178;2022-08-03T05:34:33;8.50;;;4.33;;
12418;SDS011;6273;52.312;9.178;2022-08-03T05:36:58;15.77;;;4.70;;
12418;SDS011;6273;52.312;9.178;2022-08-03T05:39:24;9.00;;;4.70;;
12418;SDS011;6273;52.312;9.178;2022-08-03T05:41:50;7.10;;;3.30;;
12418;SDS011;6273;52.312;9.178;2022-08-03T05:44:15;13.33;;;3.40;;
12418;SDS011;6273;52.312;9.178;2022-08-03T05:46:41;2.27;;;1.93;;
12418;SDS011;6273;52.312;9.178;2022-08-03T05:49:06;7.93;;;2.80;;
12418;SDS011;6273;52.312;9.178;2022-08-03T05:51:32;3.73;;;2.10;;
12418;SDS011;6273;52.312;9.178;2022-08-03T05:53:58;9.90;;;2.37;;
12418;SDS011;6273;52.312;9.178;2022-08-03T05:56:23;8.93;;;2.40;;
12418;SDS011;6273;52.312;9.178;2022-08-03T05:58:49;3.30;;;1.90;;
12418;SDS011;6273;52.312;9.178;2022-08-03T06:01:16;3.00;;;1.93;;
12418;SDS011;6273;52.312;9.178;2022-08-03T06:03:43;3.43;;;2.63;;
12418;SDS011;6273;52.312;9.178;2022-08-03T06:06:09;6.23;;;1.53;;
12418;SDS011;6273;52.312;9.178;2022-08-03T06:08:35;4.60;;;4.03;;
12418;SDS011;6273;52.312;9.178;2022-08-03T06:11:01;6.10;;;1.80;;
12418;SDS011;6273;52.312;9.178;2022-08-03T06:13:27;3.10;;;1.53;;
12418;SDS011;6273;52.312;9.178;2022-08-03T06:15:53;5.73;;;2.70;;
12418;SDS011;6273;52.312;9.178;2022-08-03T06:18:19;16.37;;;4.40;;
12418;SDS011;6273;52.312;9.178;2022-08-03T06:20:44;10.43;;;6.57;;
12418;SDS011;6273;52.312;9.178;2022-08-03T06:23:10;7.80;;;3.73;;
12418;SDS011;6273;52.312;9.178;2022-08-03T06:25:36;12.90;;;3.57;;
12418;SDS011;6273;52.312;9.178;2022-08-03T06:28:01;7.20;;;2.83;;
12418;SDS011;6273;52.312;9.178;2022-08-03T06:30:29;13.97;;;2.93;;
12418;SDS011;6273;52.312;9.178;2022-08-03T06:32:54;8.50;;;4.90;;
12418;SDS011;6273;52.312;9.178;2022-08-03T06:35:20;6.20;;;2.83;;
12418;SDS011;6273;52.312;9.178;2022-08-03T06:37:47;4.13;;;1.50;;
12418;SDS011;6273;52.312;9.178;2022-08-03T06:40:15;4.80;;;4.13;;
12418;SDS011;6273;52.312;9.178;2022-08-03T06:42:45;3.60;;;3.30;;
12418;SDS011;6273;52.312;9.178;2022-08-03T06:45:11;5.20;;;3.60;;
12418;SDS011;6273;52.312;9.178;2022-08-03T06:47:37;10.67;;;3.67;;
12418;SDS011;6273;52.312;9.178;2022-08-03T06:50:04;3.23;;;2.00;;
12418;SDS011;6273;52.312;9.178;2022-08-03T06:52:31;3.90;;;2.23;;
12418;SDS011;6273;52.312;9.178;2022-08-03T06:54:57;5.50;;;2.50;;
12418;SDS011;6273;52.312;9.178;2022-08-03T06:57:23;7.03;;;3.43;;
12418;SDS011;6273;52.312;9.178;2022-08-03T06:59:49;4.63;;;2.60;;
12418;SDS011;6273;52.312;9.178;2022-08-03T07:02:14;3.90;;;3.53;;
12418;SDS011;6273;52.312;9.178;2022-08-03T07:04:40;6.77;;;2.90;;
12418;SDS011;6273;52.312;9.178;2022-08-03T07:07:06;5.87;;;2.47;;
12418;SDS011;6273;52.312;9.178;2022-08-03T07:09:31;4.17;;;2.27;;
12418;SDS011;6273;52.312;9.178;2022-08-03T07:11:57;4.97;;;3.20;;
12418;SDS011;6273;52.312;9.178;2022-08-03T07:14:23;4.93;;;2.60;;
12418;SDS011;6273;52.312;9.178;2022-08-03T07:16:48;6.90;;;3.70;;
12418;SDS011;6273;52.312;9.178;2022-08-03T07:19:14;6.57;;;2.90;;
12418;SDS011;6273;52.312;9.178;2022-08-03T07:21:40;3.60;;;2.43;;
12418;SDS011;6273;52.312;9.178;2022-08-03T07:24:06;2.37;;;2.00;;
12418;SDS011;6273;52.312;9.178;2022-08-03T07:26:31;2.03;;;1.83;;
12418;SDS011;6273;52.312;9.178;2022-08-03T07:28:57;1.93;;;1.40;;
12418;SDS011;6273;52.312;9.178;2022-08-03T07:31:24;1.93;;;1.83;;
12418;SDS011;6273;52.312;9.178;2022-08-03T07:33:50;3.83;;;2.37;;
12418;SDS011;6273;52.312;9.178;2022-08-03T07:36:16;5.00;;;2.40;;
12418;SDS011;6273;52.312;9.178;2022-08-03T07:38:41;1.97;;;1.80;;
12418;SDS011;6273;52.312;9.178;2022-08-03T07:41:07;2.33;;;1.80;;
12418;SDS011;6273;52.312;9.178;2022-08-03T07:43:32;2.07;;;1.87;;
12418;SDS011;6273;52.312;9.178;2022-08-03T07:45:58;3.13;;;2.00;;
12418;SDS011;6273;52.312;9.178;2022-08-03T07:48:24;5.13;;;1.23;;
12418;SDS011;6273;52.312;9.178;2022-08-03T07:50:49;1.97;;;1.50;;
12418;SDS011;6273;52.312;9.178;2022-08-03T07:53:15;2.10;;;1.93;;
12418;SDS011;6273;52.312;9.178;2022-08-03T07:55:41;1.80;;;1.47;;
12418;SDS011;6273;52.312;9.178;2022-08-03T07:58:07;3.77;;;1.73;;
12418;SDS011;6273;52.312;9.178;2022-08-03T08:00:39;1.53;;;1.43;;
12418;SDS011;6273;52.312;9.178;2022-08-03T08:03:06;3.37;;;1.40;;
12418;SDS011;6273;52.312;9.178;2022-08-03T08:05:32;4.27;;;2.00;;
12418;SDS011;6273;52.312;9.178;2022-08-03T08:07:59;2.80;;;2.07;;
12418;SDS011;6273;52.312;9.178;2022-08-03T08:10:25;9.60;;;2.30;;
12418;SDS011;6273;52.312;9.178;2022-08-03T08:12:52;3.60;;;2.13;;
12418;SDS011;6273;52.312;9.178;2022-08-03T08:15:18;1.43;;;1.13;;
12418;SDS011;6273;52.312;9.178;2022-08-03T08:17:45;4.17;;;1.53;;
12418;SDS011;6273;52.312;9.178;2022-08-03T08:20:14;7.73;;;1.90;;
12418;SDS011;6273;52.312;9.178;2022-08-03T08:22:41;1.93;;;1.53;;
12418;SDS011;6273;52.312;9.178;2022-08-03T08:25:06;2.77;;;2.10;;
12418;SDS011;6273;52.312;9.178;2022-08-03T08:27:32;14.83;;;2.60;;
12418;SDS011;6273;52.312;9.178;2022-08-03T08:29:58;7.90;;;2.60;;
12418;SDS011;6273;52.312;9.178;2022-08-03T08:32:23;8.50;;;2.70;;
12418;SDS011;6273;52.312;9.178;2022-08-03T08:34:49;11.03;;;4.23;;
12418;SDS011;6273;52.312;9.178;2022-08-03T08:37:15;3.70;;;2.77;;
12418;SDS011;6273;52.312;9.178;2022-08-03T08:39:40;6.73;;;2.80;;
12418;SDS011;6273;52.312;9.178;2022-08-03T08:42:06;3.80;;;2.10;;
12418;SDS011;6273;52.312;9.178;2022-08-03T08:44:31;5.83;;;1.80;;
12418;SDS011;6273;52.312;9.178;2022-08-03T08:46:57;12.60;;;3.00;;
12418;SDS011;6273;52.312;9.178;2022-08-03T08:49:27;5.67;;;2.40;;
12418;SDS011;6273;52.312;9.178;2022-08-03T08:51:55;1.60;;;1.50;;
12418;SDS011;6273;52.312;9.178;2022-08-03T08:54:22;4.27;;;1.47;;
12418;SDS011;6273;52.312;9.178;2022-08-03T08:56:51;2.40;;;1.33;;
12418;SDS011;6273;52.312;9.178;2022-08-03T08:59:20;4.10;;;1.73;;
12418;SDS011;6273;52.312;9.178;2022-08-03T09:01:47;3.93;;;1.40;;
12418;SDS011;6273;52.312;9.178;2022-08-03T09:04:12;2.50;;;1.40;;
12418;SDS011;6273;52.312;9.178;2022-08-03T09:06:38;1.63;;;1.37;;
12418;SDS011;6273;52.312;9.178;2022-08-03T09:09:05;2.03;;;1.93;;
12418;SDS011;6273;52.312;9.178;2022-08-03T09:11:32;5.70;;;1.60;;
12418;SDS011;6273;52.312;9.178;2022-08-03T09:13:57;3.23;;;1.87;;
12418;SDS011;6273;52.312;9.178;2022-08-03T09:16:23;2.90;;;1.60;;
12418;SDS011;6273;52.312;9.178;2022-08-03T09:18:52;2.07;;;1.97;;
12418;SDS011;6273;52.312;9.178;2022-08-03T09:23:54;4.70;;;1.40;;
12418;SDS011;6273;52.312;9.178;2022-08-03T09:26:24;5.33;;;1.83;;
12418;SDS011;6273;52.312;9.178;2022-08-03T09:29:00;3.77;;;1.30;;
12418;SDS011;6273;52.312;9.178;2022-08-03T09:31:32;2.27;;;1.20;;
12418;SDS011;6273;52.312;9.178;2022-08-03T09:34:00;7.90;;;2.30;;
12418;SDS011;6273;52.312;9.178;2022-08-03T09:36:41;2.47;;;1.37;;
12418;SDS011;6273;52.312;9.178;2022-08-03T09:39:12;4.03;;;1.73;;
12418;SDS011;6273;52.312;9.178;2022-08-03T09:41:40;4.47;;;1.60;;
12418;SDS011;6273;52.312;9.178;2022-08-03T09:44:11;2.63;;;1.77;;
12418;SDS011;6273;52.312;9.178;2022-08-03T09:46:55;5.13;;;1.90;;
12418;SDS011;6273;52.312;9.178;2022-08-03T09:49:21;4.10;;;1.77;;
12418;SDS011;6273;52.312;9.178;2022-08-03T09:51:47;5.67;;;1.63;;
12418;SDS011;6273;52.312;9.178;2022-08-03T09:54:24;7.40;;;2.10;;
12418;SDS011;6273;52.312;9.178;2022-08-03T09:56:54;3.57;;;1.67;;
12418;SDS011;6273;52.312;9.178;2022-08-03T09:59:27;7.73;;;2.10;;
12418;SDS011;6273;52.312;9.178;2022-08-03T10:01:55;3.27;;;1.90;;
12418;SDS011;6273;52.312;9.178;2022-08-03T10:04:22;5.50;;;1.87;;
12418;SDS011;6273;52.312;9.178;2022-08-03T10:07:07;3.00;;;1.90;;
12418;SDS011;6273;52.312;9.178;2022-08-03T10:09:35;6.27;;;1.83;;
12418;SDS011;6273;52.312;9.178;2022-08-03T10:12:05;2.77;;;1.50;;
12418;SDS011;6273;52.312;9.178;2022-08-03T10:14:36;8.97;;;1.90;;
12418;SDS011;6273;52.312;9.178;2022-08-03T10:17:03;5.03;;;1.23;;
12418;SDS011;6273;52.312;9.178;2022-08-03T10:19:29;4.03;;;1.60;;
12418;SDS011;6273;52.312;9.178;2022-08-03T10:21:55;2.87;;;1.47;;
12418;SDS011;6273;52.312;9.178;2022-08-03T10:24:25;3.93;;;1.70;;
12418;SDS011;6273;52.312;9.178;2022-08-03T10:27:03;3.43;;;1.57;;
12418;SDS011;6273;52.312;9.178;2022-08-03T10:29:36;3.87;;;1.53;;
12418;SDS011;6273;52.312;9.178;2022-08-03T10:32:03;2.50;;;1.43;;
12418;SDS011;6273;52.312;9.178;2022-08-03T10:34:35;7.90;;;1.63;;
12418;SDS011;6273;52.312;9.178;2022-08-03T10:37:07;2.40;;;1.40;;
12418;SDS011;6273;52.312;9.178;2022-08-03T10:39:36;8.37;;;2.10;;
12418;SDS011;6273;52.312;9.178;2022-08-03T10:42:17;5.80;;;1.60;;
12418;SDS011;6273;52.312;9.178;2022-08-03T10:44:45;2.00;;;1.57;;
12418;SDS011;6273;52.312;9.178;2022-08-03T10:47:13;2.50;;;1.40;;
12418;SDS011;6273;52.312;9.178;2022-08-03T10:49:39;2.60;;;1.57;;
12418;SDS011;6273;52.312;9.178;2022-08-03T10:52:05;2.07;;;1.87;;
12418;SDS011;6273;52.312;9.178;2022-08-03T10:54:41;8.40;;;2.37;;
12418;SDS011;6273;52.312;9.178;2022-08-03T10:57:42;1.77;;;1.67;;
12418;SDS011;6273;52.312;9.178;2022-08-03T11:00:08;1.80;;;1.70;;
12418;SDS011;6273;52.312;9.178;2022-08-03T11:05:29;7.50;;;1.90;;
12418;SDS011;6273;52.312;9.178;2022-08-03T11:08:16;2.33;;;1.50;;
12418;SDS011;6273;52.312;9.178;2022-08-03T11:10:41;6.90;;;1.60;;
12418;SDS011;6273;52.312;9.178;2022-08-03T11:13:07;2.40;;;1.70;;
12418;SDS011;6273;52.312;9.178;2022-08-03T11:15:34;4.20;;;2.07;;
12418;SDS011;6273;52.312;9.178;2022-08-03T11:18:11;3.33;;;1.73;;
12418;SDS011;6273;52.312;9.178;2022-08-03T11:20:47;6.33;;;2.27;;
12418;SDS011;6273;52.312;9.178;2022-08-03T11:23:15;2.37;;;1.73;;
12418;SDS011;6273;52.312;9.178;2022-08-03T11:28:33;4.83;;;1.60;;
12418;SDS011;6273;52.312;9.178;2022-08-03T11:39:45;3.50;;;2.00;;
12418;SDS011;6273;52.312;9.178;2022-08-03T11:44:47;8.00;;;2.60;;
12418;SDS011;6273;52.312;9.178;2022-08-03T11:47:17;3.67;;;1.90;;
12418;SDS011;6273;52.312;9.178;2022-08-03T11:49:45;4.77;;;2.00;;
12418;SDS011;6273;52.312;9.178;2022-08-03T11:52:11;1.83;;;1.40;;
12418;SDS011;6273;52.312;9.178;2022-08-03T11:54:38;2.40;;;2.00;;
12418;SDS011;6273;52.312;9.178;2022-08-03T11:57:04;2.90;;;1.40;;
12418;SDS011;6273;52.312;9.178;2022-08-03T11:59:34;2.73;;;1.37;;
12418;SDS011;6273;52.312;9.178;2022-08-03T12:02:07;4.00;;;1.90;;
12418;SDS011;6273;52.312;9.178;2022-08-03T12:04:49;8.60;;;1.77;;
12418;SDS011;6273;52.312;9.178;2022-08-03T12:07:22;5.53;;;1.83;;
12418;SDS011;6273;52.312;9.178;2022-08-03T12:12:36;4.93;;;2.67;;
12418;SDS011;6273;52.312;9.178;2022-08-03T12:15:03;5.73;;;2.00;;
12418;SDS011;6273;52.312;9.178;2022-08-03T12:25:19;2.90;;;1.80;;
12418;SDS011;6273;52.312;9.178;2022-08-03T12:30:47;4.00;;;1.80;;
12418;SDS011;6273;52.312;9.178;2022-08-03T16:13:48;5.97;;;1.87;;
12418;SDS011;6273;52.312;9.178;2022-08-03T16:17:03;2.93;;;1.40;;
12418;SDS011;6273;52.312;9.178;2022-08-03T16:19:29;1.80;;;1.60;;
12418;SDS011;6273;52.312;9.178;2022-08-03T16:21:54;1.90;;;1.77;;
12418;SDS011;6273;52.312;9.178;2022-08-03T16:24:20;2.07;;;1.67;;
12418;SDS011;6273;52.312;9.178;2022-08-03T16:26:45;7.27;;;2.03;;
12418;SDS011;6273;52.312;9.178;2022-08-03T16:29:11;6.17;;;2.37;;
12418;SDS011;6273;52.312;9.178;2022-08-03T16:54:58;2.70;;;1.63;;
12418;SDS011;6273;52.312;9.178;2022-08-03T17:00:30;7.80;;;2.40;;
12418;SDS011;6273;52.312;9.178;2022-08-03T17:02:57;1.97;;;1.43;;
12418;SDS011;6273;52.312;9.178;2022-08-03T17:05:24;1.90;;;1.80;;
12418;SDS011;6273;52.312;9.178;2022-08-03T17:07:51;2.40;;;1.60;;
12418;SDS011;6273;52.312;9.178;2022-08-03T17:10:17;3.40;;;1.80;;
12418;SDS011;6273;52.312;9.178;2022-08-03T17:12:44;2.33;;;2.13;;
12418;SDS011;6273;52.312;9.178;2022-08-03T17:15:09;6.23;;;2.20;;
12418;SDS011;6273;52.312;9.178;2022-08-03T17:17:35;1.23;;;1.13;;
12418;SDS011;6273;52.312;9.178;2022-08-03T17:20:07;3.20;;;1.30;;
12418;SDS011;6273;52.312;9.178;2022-08-03T17:22:38;3.03;;;2.10;;
12418;SDS011;6273;52.312;9.178;2022-08-03T17:25:13;3.40;;;1.70;;
12418;SDS011;6273;52.312;9.178;2022-08-03T17:27:40;4.20;;;2.30;;
12418;SDS011;6273;52.312;9.178;2022-08-03T17:30:09;2.70;;;1.93;;
12418;SDS011;6273;52.312;9.178;2022-08-03T17:32:37;1.70;;;1.60;;
12418;SDS011;6273;52.312;9.178;2022-08-03T17:35:05;12.70;;;2.20;;
12418;SDS011;6273;52.312;9.178;2022-08-03T17:37:31;4.73;;;1.90;;
12418;SDS011;6273;52.312;9.178;2022-08-03T17:52:00;3.13;;;1.90;;
12418;SDS011;6273;52.312;9.178;2022-08-03T17:54:46;3.63;;;2.60;;
12418;SDS011;6273;52.312;9.178;2022-08-03T18:00:32;3.10;;;2.80;;
12418;SDS011;6273;52.312;9.178;2022-08-03T18:03:41;5.50;;;2.87;;
12418;SDS011;6273;52.312;9.178;2022-08-03T18:06:11;5.73;;;2.63;;
12418;SDS011;6273;52.312;9.178;2022-08-03T18:08:37;5.10;;;4.60;;
12418;SDS011;6273;52.312;9.178;2022-08-03T18:11:10;4.47;;;3.20;;
12418;SDS011;6273;52.312;9.178;2022-08-03T18:13:39;4.57;;;3.00;;
12418;SDS011;6273;52.312;9.178;2022-08-03T18:16:06;8.40;;;2.97;;
12418;SDS011;6273;52.312;9.178;2022-08-03T18:18:38;5.23;;;2.70;;
12418;SDS011;6273;52.312;9.178;2022-08-03T18:21:06;8.10;;;2.70;;
12418;SDS011;6273;52.312;9.178;2022-08-03T18:23:34;3.20;;;3.00;;
12418;SDS011;6273;52.312;9.178;2022-08-03T18:26:02;2.90;;;2.63;;
12418;SDS011;6273;52.312;9.178;2022-08-03T18:28:33;4.23;;;3.23;;
12418;SDS011;6273;52.312;9.178;2022-08-03T18:31:01;3.40;;;3.10;;
12418;SDS011;6273;52.312;9.178;2022-08-03T18:33:27;2.90;;;2.70;;
12418;SDS011;6273;52.312;9.178;2022-08-03T18:35:54;3.10;;;2.90;;
12418;SDS011;6273;52.312;9.178;2022-08-03T18:38:22;4.27;;;3.00;;
12418;SDS011;6273;52.312;9.178;2022-08-03T20:41:39;15.20;;;3.97;;
12418;SDS011;6273;52.312;9.178;2022-08-03T20:44:05;9.03;;;3.23;;
12418;SDS011;6273;52.312;9.178;2022-08-03T20:46:31;7.17;;;3.57;;
12418;SDS011;6273;52.312;9.178;2022-08-03T20:48:57;6.30;;;3.20;;
12418;SDS011;6273;52.312;9.178;2022-08-03T23:40:03;4.83;;;3.63;;
12418;SDS011;6273;52.312;9.178;2022-08-03T23:42:30;6.43;;;4.30;;
12418;SDS011;6273;52.312;9.178;2022-08-03T23:44:57;4.83;;;2.57;;
12418;SDS011;6273;52.312;9.178;2022-08-03T23:47:26;4.10;;;3.20;;
12418;SDS011;6273;52.312;9.178;2022-08-03T23:49:52;7.33;;;3.10;;
12418;SDS011;6273;52.312;9.178;2022-08-03T23:55:33;3.03;;;2.63;;
